Airfield :
LOGIN :

Register | Disclaimer

   EN    FR    IT 

 










Legend :    VFR   Marginal VFR   IFR   Intensive IFR   Very Intensive IFR
Visi :
Ceiling :
>= 8 km
>= 3000ft
5 to 8 km
1000 to 3000 ft
1500m to 5 km
500 to 1000 ft
800 to 1500m
200 to 500 ft
< 800m
< 200 ft
Symbols :   Thunderstorms  Fog  Heavy snow  Heavy precipitations  Wind > 20 kt
SIGMETs :     Misc.  Thunderstorms  Icing  Turbulence  Mountain Waves  Volcanic Ashes






- Airport Elevation : 776 ft
- IATA code : RMS


ETAR - Ramstein Air Base

CURRENT METAR :
  • 251556Z 24011G20KT 9999 SCT030 09/05 A2955 RMK AO2A RAB09E22 SLP014 P0000 T00890049 FZRANO $

EXPIRED METARs :
  • 251522Z 23010KT 9999 SCT019 BKN027 08/06 A2956 RMK AO2A RAB09E22 SLP017 FZRANO $
  • 251509Z 26011KT 9999 -RA BKN021 BKN027 08/06 A2957 RMK AO2A RAB09 CIG 019 RWY08 SLP020 FZRANO $
  • 251456Z 24010KT 9999 BKN023 BKN028 09/06 A2957 RMK AO2A SLP020 60000 T00880057 57021 FZRANO $
  • 251426Z 25011KT 9999 SCT023 BKN029 BKN034 BKN050 08/06 A2958 RMK AO2A SLP024 FZRANO $
  • 251356Z 23007KT 9999 SCT025 BKN034 08/06 A2959 RMK AO2A RAB1256E08 SLP027 P0000 T00840064 FZRANO $

TAF TAF ETAR
Valid from the 25 at 10:00 until the 26 at 16:00 UTC


2510/2616 24012G20KT 9000 -RA OVC012 510005 QNH2957INS
BECMG 2512/2513 25012G20KT 9999 NSW BKN020 510005 QNH2946INS
BECMG 2523/2524 22015G25KT 9000 -SHRA BKN018 640208 520005 QNH2944INS
TEMPO 2604/2607 -RASN OVC015
BECMG 2609/2610 27012G20KT 9999 NSW BKN025 510005 QNH2951INS TX09/2514Z TN02/2606Z



MET'MAP, your aeronautical weather chart ! - Copyright ORBIFLY December 2007 - Disclaimer

ORBIFLY MET'MAP TEAM :

Programming & Development : Alexandra Zaïnal
Concept & original design : Baudouin d'Aumeries
Assistance for programming : Marc-Olivier Méhu
Technical & hardware support : Manuel Goepfert

Contact : metmap@orbifly.com




SOURCES & CREDITS :

   NOAA